Time;durP1;ratioP1;P1;durP2;ratioP2;P2;SDS_P1;SDS_P2;PMS_P1;PMS_P2;Temp;Humidity;BMP_temperature;BMP_pressure;BME280_temperature;BME280_humidity;BME280_pressure;Samples;Min_cycle;Max_cycle;Signal;HPM_P1;HPM_P2
2022/03/10 00:01:15;;;;;;;;;50.00;42.00;;;;;;;;5109771;27;28611;-85
2022/03/10 00:03:40;;;;;;;;;53.00;44.67;;;;;;;;5104055;27;28377;-85
2022/03/10 00:06:06;;;;;;;;;48.00;42.00;;;;;;;;5101776;27;28445;-85
2022/03/10 00:08:31;;;;;;;;;53.00;41.67;;;;;;;;5111181;27;28373;-85
2022/03/10 00:10:56;;;;;;;;;44.00;41.25;;;;;;;;5109146;27;28345;-85
2022/03/10 00:13:22;;;;;;;;;39.25;36.75;;;;;;;;5089564;27;27862;-85
2022/03/10 00:15:47;;;;;;;;;39.00;39.00;;;;;;;;5090323;28;29258;-85
2022/03/10 00:18:12;;;;;;;;;42.67;38.67;;;;;;;;5090232;28;28429;-85
2022/03/10 00:20:37;;;;;;;;;38.33;38.33;;;;;;;;5090454;28;28539;-85
2022/03/10 00:23:02;;;;;;;;;36.75;34.75;;;;;;;;5090033;28;28678;-85
2022/03/10 00:25:28;;;;;;;;;46.33;41.00;;;;;;;;5089991;28;28389;-84
2022/03/10 00:27:53;;;;;;;;;49.00;43.33;;;;;;;;5090034;27;28317;-85
2022/03/10 00:30:18;;;;;;;;;49.33;44.00;;;;;;;;5100424;27;28320;-85
2022/03/10 00:32:50;;;;;;;;;45.50;40.50;;;;;;;;5110595;27;28244;-84
2022/03/10 00:35:18;;;;;;;;;51.75;42.75;;;;;;;;5110191;27;28499;-84
2022/03/10 00:37:43;;;;;;;;;56.50;43.75;;;;;;;;5110004;27;28538;-85
2022/03/10 00:40:08;;;;;;;;;38.00;34.00;;;;;;;;5110454;27;28424;-84
2022/03/10 00:42:37;;;;;;;;;43.33;39.33;;;;;;;;5110564;27;28358;-84
2022/03/10 00:45:03;;;;;;;;;39.50;36.25;;;;;;;;5109143;27;28445;-84
2022/03/10 00:47:28;;;;;;;;;53.67;44.33;;;;;;;;5110168;27;28494;-84
2022/03/10 00:49:53;;;;;;;;;50.75;41.25;;;;;;;;5110206;27;28502;-85
2022/03/10 00:52:18;;;;;;;;;47.00;43.00;;;;;;;;5110273;27;28481;-85
2022/03/10 00:54:43;;;;;;;;;49.50;40.00;;;;;;;;5110320;27;29703;-85
2022/03/10 00:57:09;;;;;;;;;42.00;38.00;;;;;;;;5109944;27;28317;-84
2022/03/10 00:59:34;;;;;;;;;51.33;45.33;;;;;;;;5100914;27;28310;-84
2022/03/10 01:01:59;;;;;;;;;48.67;44.00;;;;;;;;5101147;27;28296;-84
2022/03/10 01:04:24;;;;;;;;;52.00;42.00;;;;;;;;5110081;27;28622;-85
2022/03/10 01:06:49;;;;;;;;;46.00;41.67;;;;;;;;5109282;27;28597;-84
2022/03/10 01:09:15;;;;;;;;;46.75;40.00;;;;;;;;5110182;27;28314;-85
2022/03/10 01:11:40;;;;;;;;;59.00;46.00;;;;;;;;5110003;27;28543;-85
2022/03/10 01:14:05;;;;;;;;;50.50;41.50;;;;;;;;5109707;27;29502;-85
2022/03/10 01:16:31;;;;;;;;;49.00;42.33;;;;;;;;5109976;27;28416;-85
2022/03/10 01:18:56;;;;;;;;;47.67;41.00;;;;;;;;5108956;27;28499;-84
2022/03/10 01:21:21;;;;;;;;;46.25;41.25;;;;;;;;5108799;27;28401;-85
2022/03/10 01:23:46;;;;;;;;;52.00;42.00;;;;;;;;5107671;27;29477;-85
2022/03/10 01:26:11;;;;;;;;;57.25;44.50;;;;;;;;5109570;27;28625;-84
2022/03/10 01:28:37;;;;;;;;;52.00;44.00;;;;;;;;5109620;27;28486;-85
2022/03/10 01:31:02;;;;;;;;;46.75;41.75;;;;;;;;5109814;27;28425;-84
2022/03/10 01:33:28;;;;;;;;;51.25;42.00;;;;;;;;5109395;27;28447;-85
2022/03/10 01:35:54;;;;;;;;;46.00;39.20;;;;;;;;5108781;27;28342;-84
2022/03/10 01:38:19;;;;;;;;;50.00;42.25;;;;;;;;5090192;27;28457;-84
2022/03/10 01:40:44;;;;;;;;;47.25;37.25;;;;;;;;5097213;27;28590;-84
2022/03/10 01:43:09;;;;;;;;;47.75;40.50;;;;;;;;5107587;27;28862;-84
2022/03/10 01:45:35;;;;;;;;;37.25;34.50;;;;;;;;5109185;27;29008;-84
2022/03/10 01:48:01;;;;;;;;;38.67;33.33;;;;;;;;5107947;27;28363;-84
2022/03/10 01:50:26;;;;;;;;;45.60;38.60;;;;;;;;5108796;27;28214;-84
2022/03/10 01:52:52;;;;;;;;;41.33;40.33;;;;;;;;5109148;27;28471;-84
2022/03/10 01:55:19;;;;;;;;;47.00;42.00;;;;;;;;5108501;27;28319;-84
2022/03/10 01:57:45;;;;;;;;;50.20;37.80;;;;;;;;5109206;27;28393;-84
2022/03/10 02:00:11;;;;;;;;;40.75;36.75;;;;;;;;5106981;27;28853;-84
2022/03/10 02:02:37;;;;;;;;;34.20;33.80;;;;;;;;5108862;27;29040;-84
2022/03/10 02:05:02;;;;;;;;;37.25;35.00;;;;;;;;5109050;27;28420;-84
2022/03/10 02:10:17;;;;;;;;;41.00;40.67;;;;;;;;5097925;27;28523;-84
2022/03/10 02:12:46;;;;;;;;;47.25;41.00;;;;;;;;5088524;27;28580;-84
2022/03/10 02:17:56;;;;;;;;;44.00;40.25;;;;;;;;5088195;28;28388;-84
2022/03/10 02:20:21;;;;;;;;;35.75;29.25;;;;;;;;5088331;27;28590;-83
2022/03/10 02:22:47;;;;;;;;;41.00;37.25;;;;;;;;5088093;28;28632;-84
2022/03/10 02:25:13;;;;;;;;;45.25;39.50;;;;;;;;5088231;28;28400;-84
2022/03/10 02:27:38;;;;;;;;;43.80;37.40;;;;;;;;5088549;27;28400;-84
2022/03/10 02:30:04;;;;;;;;;48.33;39.00;;;;;;;;5088245;27;28486;-84
2022/03/10 02:32:29;;;;;;;;;40.00;38.75;;;;;;;;5108064;27;28396;-83
2022/03/10 02:34:54;;;;;;;;;32.00;31.75;;;;;;;;5108570;27;28285;-84
2022/03/10 02:37:19;;;;;;;;;45.67;41.67;;;;;;;;5119686;27;28468;-84
2022/03/10 02:39:45;;;;;;;;;33.50;30.25;;;;;;;;5109774;27;28394;-84
2022/03/10 02:42:12;;;;;;;;;34.75;34.75;;;;;;;;5091870;28;29271;-84
2022/03/10 02:44:45;;;;;;;;;38.40;34.40;;;;;;;;5091554;28;28319;-84
2022/03/10 02:47:10;;;;;;;;;37.25;37.25;;;;;;;;5091542;28;28651;-83
2022/03/10 02:49:36;;;;;;;;;46.67;42.67;;;;;;;;5091556;28;28485;-84
2022/03/10 02:52:03;;;;;;;;;44.75;42.00;;;;;;;;5109413;27;28470;-84
2022/03/10 02:54:28;;;;;;;;;45.67;41.00;;;;;;;;5111551;27;28432;-84
2022/03/10 02:56:53;;;;;;;;;40.75;36.25;;;;;;;;5111738;27;28474;-84
2022/03/10 02:59:18;;;;;;;;;48.00;41.00;;;;;;;;5111943;27;28371;-84
2022/03/10 03:01:44;;;;;;;;;36.00;32.67;;;;;;;;5111492;27;28551;-83
2022/03/10 03:04:09;;;;;;;;;39.50;35.75;;;;;;;;5102078;27;28994;-84
2022/03/10 03:06:34;;;;;;;;;36.00;31.33;;;;;;;;5091755;28;28598;-84
2022/03/10 03:08:59;;;;;;;;;38.67;33.67;;;;;;;;5090623;28;28439;-83
2022/03/10 03:11:24;;;;;;;;;36.50;32.50;;;;;;;;5110262;27;29185;-84
2022/03/10 03:13:50;;;;;;;;;43.25;41.50;;;;;;;;5111731;27;28431;-83
2022/03/10 03:16:15;;;;;;;;;38.00;33.50;;;;;;;;5111525;27;28491;-83
2022/03/10 03:18:40;;;;;;;;;40.25;34.00;;;;;;;;5110830;27;28460;-83
2022/03/10 03:21:05;;;;;;;;;40.67;35.00;;;;;;;;5111245;27;29408;-84
2022/03/10 03:23:31;;;;;;;;;41.50;37.00;;;;;;;;5104709;27;28385;-84
2022/03/10 03:25:56;;;;;;;;;46.00;40.33;;;;;;;;5091299;28;28354;-83
2022/03/10 03:28:21;;;;;;;;;41.25;37.75;;;;;;;;5090941;27;28461;-84
2022/03/10 03:30:47;;;;;;;;;34.33;32.67;;;;;;;;5090865;27;28482;-84
2022/03/10 03:33:12;;;;;;;;;40.80;39.00;;;;;;;;5090796;27;28329;-84
2022/03/10 03:35:37;;;;;;;;;36.00;35.50;;;;;;;;5090887;28;28495;-84
2022/03/10 03:38:02;;;;;;;;;37.67;35.00;;;;;;;;5090660;28;28401;-83
2022/03/10 03:40:28;;;;;;;;;42.33;41.67;;;;;;;;5090682;27;28761;-83
2022/03/10 03:42:53;;;;;;;;;36.67;34.33;;;;;;;;5090603;28;28784;-83
2022/03/10 03:45:18;;;;;;;;;42.00;35.00;;;;;;;;5090530;28;28252;-83
2022/03/10 03:47:43;;;;;;;;;42.00;35.33;;;;;;;;5090988;28;28395;-83
2022/03/10 03:50:09;;;;;;;;;45.00;40.00;;;;;;;;5107235;27;28396;-83
2022/03/10 03:52:35;;;;;;;;;47.75;42.25;;;;;;;;5111280;27;28354;-84
2022/03/10 03:55:00;;;;;;;;;35.50;30.75;;;;;;;;5110900;27;28404;-83
2022/03/10 03:57:25;;;;;;;;;40.33;36.00;;;;;;;;5110915;27;28302;-83
2022/03/10 03:59:50;;;;;;;;;38.67;34.67;;;;;;;;5110909;27;28459;-83
2022/03/10 04:02:16;;;;;;;;;40.00;33.67;;;;;;;;5110443;27;28238;-83
2022/03/10 04:04:41;;;;;;;;;36.33;36.00;;;;;;;;5111162;27;28412;-84
2022/03/10 04:07:06;;;;;;;;;43.33;39.33;;;;;;;;5111077;27;28422;-84
2022/03/10 04:09:31;;;;;;;;;31.75;30.00;;;;;;;;5110502;27;28566;-83
2022/03/10 04:11:56;;;;;;;;;34.00;28.00;;;;;;;;5110556;27;28518;-84
2022/03/10 04:14:22;;;;;;;;;40.67;37.00;;;;;;;;5110870;27;28330;-83
2022/03/10 04:16:47;;;;;;;;;40.50;35.50;;;;;;;;5109804;27;28398;-83
2022/03/10 04:19:12;;;;;;;;;34.50;32.50;;;;;;;;5110123;27;29443;-84
2022/03/10 04:21:37;;;;;;;;;37.67;33.33;;;;;;;;5110475;27;28472;-84
2022/03/10 04:24:03;;;;;;;;;35.75;34.25;;;;;;;;5110365;27;28048;-84
2022/03/10 04:26:28;;;;;;;;;46.00;40.25;;;;;;;;5110444;27;28444;-84
2022/03/10 04:28:54;;;;;;;;;38.25;37.50;;;;;;;;5095651;27;28378;-83
2022/03/10 04:31:19;;;;;;;;;38.50;34.50;;;;;;;;5089752;28;28479;-83
2022/03/10 04:33:44;;;;;;;;;39.50;36.00;;;;;;;;5092095;27;28406;-83
2022/03/10 04:36:10;;;;;;;;;40.00;34.00;;;;;;;;5110502;27;28390;-83
2022/03/10 04:38:35;;;;;;;;;40.75;39.00;;;;;;;;5109895;27;28600;-84
2022/03/10 04:41:00;;;;;;;;;33.00;31.33;;;;;;;;5110454;27;28452;-84
2022/03/10 04:43:26;;;;;;;;;45.00;36.75;;;;;;;;5110397;27;28438;-83
2022/03/10 04:45:51;;;;;;;;;33.67;33.67;;;;;;;;5110487;27;28402;-83
2022/03/10 04:48:16;;;;;;;;;29.25;29.25;;;;;;;;5108891;27;29874;-83
2022/03/10 04:50:41;;;;;;;;;37.25;37.25;;;;;;;;5110176;27;28545;-84
2022/03/10 04:53:07;;;;;;;;;30.00;30.00;;;;;;;;5110351;27;28322;-83
2022/03/10 04:55:32;;;;;;;;;37.75;33.50;;;;;;;;5110077;27;28346;-83
2022/03/10 04:57:58;;;;;;;;;34.50;32.00;;;;;;;;5110047;27;29233;-83
2022/03/10 05:00:23;;;;;;;;;39.50;34.50;;;;;;;;5107670;27;28815;-84
2022/03/10 05:02:48;;;;;;;;;35.33;31.67;;;;;;;;5089400;27;28386;-84
2022/03/10 05:05:14;;;;;;;;;35.00;33.00;;;;;;;;5089880;27;28290;-83
2022/03/10 05:07:40;;;;;;;;;42.33;40.00;;;;;;;;5097451;27;29313;-83
2022/03/10 05:10:05;;;;;;;;;39.40;32.20;;;;;;;;5109473;27;28707;-83
2022/03/10 05:12:30;;;;;;;;;39.00;39.00;;;;;;;;5109750;27;28250;-84
2022/03/10 05:14:56;;;;;;;;;45.00;35.00;;;;;;;;5109627;27;27897;-84
2022/03/10 05:17:23;;;;;;;;;33.00;33.00;;;;;;;;5109668;27;28622;-83
2022/03/10 05:19:49;;;;;;;;;38.75;38.75;;;;;;;;5109845;27;28468;-85
2022/03/10 05:22:14;;;;;;;;;35.00;32.33;;;;;;;;5109000;27;28372;-85
2022/03/10 05:24:39;;;;;;;;;38.25;31.25;;;;;;;;5108019;27;28499;-84
2022/03/10 05:27:04;;;;;;;;;43.67;38.33;;;;;;;;5109085;27;29478;-85
2022/03/10 05:29:29;;;;;;;;;35.00;33.00;;;;;;;;5108749;27;28829;-86
2022/03/10 05:31:55;;;;;;;;;34.25;34.25;;;;;;;;5109292;27;28326;-86
2022/03/10 05:34:20;;;;;;;;;41.75;38.50;;;;;;;;5105219;27;28563;-86
2022/03/10 05:36:45;;;;;;;;;36.00;32.00;;;;;;;;5089980;27;29012;-86
2022/03/10 05:39:11;;;;;;;;;29.75;29.75;;;;;;;;5104380;27;28461;-86
2022/03/10 05:41:36;;;;;;;;;47.67;31.67;;;;;;;;5098265;27;28885;-86
2022/03/10 05:44:02;;;;;;;;;41.50;36.25;;;;;;;;5087281;28;28438;-86
2022/03/10 05:46:27;;;;;;;;;36.75;35.75;;;;;;;;5103461;27;28502;-86
2022/03/10 05:48:52;;;;;;;;;37.33;33.67;;;;;;;;5109155;27;28600;-86
2022/03/10 05:51:17;;;;;;;;;40.67;34.67;;;;;;;;5109430;27;28466;-86
2022/03/10 05:53:43;;;;;;;;;36.33;29.67;;;;;;;;5109625;27;28327;-86
2022/03/10 05:56:08;;;;;;;;;33.00;32.67;;;;;;;;5108846;27;28301;-86
2022/03/10 05:58:34;;;;;;;;;36.75;32.25;;;;;;;;5108852;27;28404;-86
2022/03/10 06:00:59;;;;;;;;;38.00;34.00;;;;;;;;5109013;27;28376;-86
2022/03/10 06:03:24;;;;;;;;;36.67;32.67;;;;;;;;5109814;27;28309;-86
2022/03/10 06:05:49;;;;;;;;;36.00;34.00;;;;;;;;5108971;27;29076;-86
2022/03/10 06:08:14;;;;;;;;;33.00;25.67;;;;;;;;5109147;27;28008;-86
2022/03/10 06:10:40;;;;;;;;;39.00;33.00;;;;;;;;5109973;27;28247;-85
2022/03/10 06:13:06;;;;;;;;;32.00;32.00;;;;;;;;5103950;27;28894;-86
2022/03/10 06:15:31;;;;;;;;;31.00;31.00;;;;;;;;5094295;27;28855;-85
2022/03/10 06:17:56;;;;;;;;;32.50;29.00;;;;;;;;5112717;27;28365;-85
2022/03/10 06:20:22;;;;;;;;;34.50;33.25;;;;;;;;5112670;27;28290;-87
2022/03/10 06:22:47;;;;;;;;;40.00;32.67;;;;;;;;5112921;27;29050;-87
2022/03/10 06:25:13;;;;;;;;;33.67;25.33;;;;;;;;5112418;27;28470;-88
2022/03/10 06:27:38;;;;;;;;;31.00;26.20;;;;;;;;5112743;27;28548;-86
2022/03/10 06:30:04;;;;;;;;;29.67;22.00;;;;;;;;5110366;27;28569;-88
2022/03/10 06:32:29;;;;;;;;;43.50;39.50;;;;;;;;5094854;27;28421;-85
2022/03/10 06:34:56;;;;;;;;;34.67;29.67;;;;;;;;5099438;27;29514;-86
2022/03/10 06:37:21;;;;;;;;;64.50;54.50;;;;;;;;5091777;27;28431;-87
2022/03/10 06:39:47;;;;;;;;;99.25;82.50;;;;;;;;5092130;28;28418;-87
2022/03/10 06:42:13;;;;;;;;;84.00;69.33;;;;;;;;5092150;27;28245;-87
2022/03/10 06:44:38;;;;;;;;;81.25;68.50;;;;;;;;5092028;27;29276;-88
2022/03/10 06:47:04;;;;;;;;;63.40;52.20;;;;;;;;5109918;27;28565;-88
2022/03/10 06:49:30;;;;;;;;;38.33;34.00;;;;;;;;5101839;27;28469;-87
2022/03/10 06:51:55;;;;;;;;;30.25;28.00;;;;;;;;5092155;28;27809;-87
2022/03/10 06:54:20;;;;;;;;;34.00;27.67;;;;;;;;5091559;28;28341;-88
2022/03/10 06:56:45;;;;;;;;;37.67;34.00;;;;;;;;5091393;28;28459;-88
2022/03/10 06:59:11;;;;;;;;;46.00;38.00;;;;;;;;5091931;28;28140;-88
2022/03/10 07:01:36;;;;;;;;;34.33;31.00;;;;;;;;5091804;27;27862;-87
2022/03/10 07:04:01;;;;;;;;;41.33;35.00;;;;;;;;5091554;27;28554;-87
2022/03/10 07:06:27;;;;;;;;;36.00;31.75;;;;;;;;5091490;27;28456;-88
2022/03/10 07:08:52;;;;;;;;;38.50;33.75;;;;;;;;5098000;27;28352;-87
2022/03/10 07:11:18;;;;;;;;;39.75;30.50;;;;;;;;5112179;27;28380;-88
2022/03/10 07:13:44;;;;;;;;;39.00;36.25;;;;;;;;5111616;27;28474;-88
2022/03/10 07:16:09;;;;;;;;;38.50;35.25;;;;;;;;5098611;27;27850;-88
2022/03/10 07:18:35;;;;;;;;;36.25;31.25;;;;;;;;5108536;27;28333;-88
2022/03/10 07:21:00;;;;;;;;;34.25;30.75;;;;;;;;5111798;27;28417;-88
2022/03/10 07:23:25;;;;;;;;;36.00;36.00;;;;;;;;5111425;27;28348;-88
2022/03/10 07:25:50;;;;;;;;;33.00;31.67;;;;;;;;5103603;27;28519;-87
2022/03/10 07:28:16;;;;;;;;;36.00;34.33;;;;;;;;5091633;28;28474;-88
2022/03/10 07:30:41;;;;;;;;;37.00;30.50;;;;;;;;5092220;27;28491;-88
2022/03/10 07:33:06;;;;;;;;;35.00;33.00;;;;;;;;5091074;28;29199;-88
2022/03/10 07:35:31;;;;;;;;;33.33;31.33;;;;;;;;5091702;27;28504;-88
2022/03/10 07:37:59;;;;;;;;;41.33;36.33;;;;;;;;5090997;28;28274;-88
2022/03/10 07:40:25;;;;;;;;;36.00;34.00;;;;;;;;5090983;27;28483;-88
2022/03/10 07:42:50;;;;;;;;;37.20;35.60;;;;;;;;5091659;27;28529;-89
2022/03/10 07:45:15;;;;;;;;;35.50;31.00;;;;;;;;5111178;27;28255;-88
2022/03/10 07:47:41;;;;;;;;;28.00;27.33;;;;;;;;5111451;27;28319;-88
2022/03/10 07:50:06;;;;;;;;;32.00;29.75;;;;;;;;5111366;27;28251;-88
2022/03/10 07:52:32;;;;;;;;;41.00;34.25;;;;;;;;5108863;27;29604;-88
2022/03/10 07:54:57;;;;;;;;;38.25;33.25;;;;;;;;5090729;27;28369;-88
2022/03/10 07:57:22;;;;;;;;;29.75;29.75;;;;;;;;5090657;28;28516;-88
2022/03/10 07:59:48;;;;;;;;;33.00;27.00;;;;;;;;5090955;28;27794;-88
2022/03/10 08:02:13;;;;;;;;;26.00;26.00;;;;;;;;5090271;27;28377;-88
2022/03/10 08:04:38;;;;;;;;;34.00;31.67;;;;;;;;5090951;28;28346;-88
2022/03/10 08:07:04;;;;;;;;;31.67;29.33;;;;;;;;5090491;28;28436;-88
2022/03/10 08:09:29;;;;;;;;;37.33;34.33;;;;;;;;5091121;27;28368;-88
2022/03/10 08:11:54;;;;;;;;;39.33;34.00;;;;;;;;5090261;28;29396;-85
2022/03/10 08:14:19;;;;;;;;;41.00;31.67;;;;;;;;5090294;28;28292;-87
2022/03/10 08:16:45;;;;;;;;;34.75;34.75;;;;;;;;5090574;28;28404;-88
2022/03/10 08:19:10;;;;;;;;;32.50;32.50;;;;;;;;5092036;27;28563;-86
2022/03/10 08:21:35;;;;;;;;;32.67;30.67;;;;;;;;5102998;27;28562;-90
2022/03/10 08:24:00;;;;;;;;;33.00;32.00;;;;;;;;5110799;27;28371;-87
2022/03/10 08:26:26;;;;;;;;;30.50;30.50;;;;;;;;5105990;27;28346;-91
2022/03/10 08:28:53;;;;;;;;;35.25;34.00;;;;;;;;5096278;27;28228;-90
2022/03/10 08:31:18;;;;;;;;;31.75;30.75;;;;;;;;5095289;27;28499;-89
2022/03/10 08:33:44;;;;;;;;;38.25;34.25;;;;;;;;5107804;27;28798;-87
2022/03/10 08:36:10;;;;;;;;;36.00;34.00;;;;;;;;5110636;27;28879;-87
2022/03/10 08:38:35;;;;;;;;;39.50;39.50;;;;;;;;5110669;27;28293;-87
2022/03/10 08:41:01;;;;;;;;;36.67;32.67;;;;;;;;5110487;27;28433;-88
2022/03/10 08:43:29;;;;;;;;;43.00;35.50;;;;;;;;5101826;27;28519;-87
2022/03/10 08:45:55;;;;;;;;;43.50;35.00;;;;;;;;5118119;27;28321;-87
2022/03/10 08:48:20;;;;;;;;;31.33;29.00;;;;;;;;5130969;27;28439;-87
2022/03/10 08:50:45;;;;;;;;;33.33;33.33;;;;;;;;5110193;27;29217;-87
2022/03/10 08:53:10;;;;;;;;;30.25;30.25;;;;;;;;5110573;27;28364;-87
2022/03/10 08:55:36;;;;;;;;;45.00;43.50;;;;;;;;5110588;27;28655;-87
2022/03/10 08:58:01;;;;;;;;;33.75;30.25;;;;;;;;5110184;27;28261;-87
2022/03/10 09:00:26;;;;;;;;;32.25;30.75;;;;;;;;5109750;27;28421;-87
2022/03/10 09:02:51;;;;;;;;;37.00;31.33;;;;;;;;5128924;27;28785;-87
2022/03/10 09:05:17;;;;;;;;;35.33;32.00;;;;;;;;5131072;27;28280;-87
2022/03/10 09:07:43;;;;;;;;;30.00;27.20;;;;;;;;5130669;27;28319;-87
2022/03/10 09:10:09;;;;;;;;;33.75;30.50;;;;;;;;5130737;27;28234;-87
2022/03/10 09:12:35;;;;;;;;;38.00;31.20;;;;;;;;5130363;27;28387;-87
2022/03/10 09:15:00;;;;;;;;;34.25;30.25;;;;;;;;5130647;27;28463;-87
2022/03/10 09:17:26;;;;;;;;;35.50;33.00;;;;;;;;5130662;27;28357;-87
2022/03/10 09:19:51;;;;;;;;;34.25;28.50;;;;;;;;5129272;27;28500;-87
2022/03/10 09:22:18;;;;;;;;;34.00;33.25;;;;;;;;5130353;27;28360;-87
2022/03/10 09:24:43;;;;;;;;;33.75;33.75;;;;;;;;5130137;27;28546;-87
2022/03/10 09:27:09;;;;;;;;;40.00;35.50;;;;;;;;5130624;27;28894;-87
2022/03/10 09:29:34;;;;;;;;;37.50;36.50;;;;;;;;5130609;27;28305;-87
2022/03/10 09:32:00;;;;;;;;;37.40;31.00;;;;;;;;5130240;27;28497;-88
2022/03/10 09:34:25;;;;;;;;;36.75;33.25;;;;;;;;5128599;27;28341;-87
2022/03/10 09:36:50;;;;;;;;;39.00;33.00;;;;;;;;5127621;27;28448;-88
2022/03/10 09:39:17;;;;;;;;;46.00;40.00;;;;;;;;5110825;27;28802;-87
2022/03/10 09:41:43;;;;;;;;;33.50;30.00;;;;;;;;5114862;27;29549;-95
2022/03/10 09:44:13;;;;;;;;;39.50;36.75;;;;;;;;5118684;27;28617;-89
2022/03/10 09:46:39;;;;;;;;;43.00;32.00;;;;;;;;5128058;27;28378;-87
2022/03/10 09:49:04;;;;;;;;;35.25;30.75;;;;;;;;5110951;27;28722;-91
2022/03/10 09:51:29;;;;;;;;;34.00;27.67;;;;;;;;5120492;27;28425;-87
2022/03/10 09:53:54;;;;;;;;;30.67;30.00;;;;;;;;5114032;27;28581;-87
2022/03/10 09:56:21;;;;;;;;;37.33;34.67;;;;;;;;5101153;27;28522;-86
2022/03/10 09:58:46;;;;;;;;;37.75;36.00;;;;;;;;5107320;27;28840;-87
2022/03/10 10:01:11;;;;;;;;;33.00;33.00;;;;;;;;5108375;27;28489;-87
2022/03/10 10:03:37;;;;;;;;;55.25;48.25;;;;;;;;5090138;27;28475;-89
2022/03/10 10:06:02;;;;;;;;;40.50;34.00;;;;;;;;5093572;27;28969;-85
2022/03/10 10:08:30;;;;;;;;;38.20;34.20;;;;;;;;5108389;27;28396;-82
2022/03/10 10:10:56;;;;;;;;;31.50;30.50;;;;;;;;5098079;27;28588;-82
2022/03/10 10:13:25;;;;;;;;;38.00;33.75;;;;;;;;5107839;27;28520;-82
2022/03/10 10:16:00;;;;;;;;;35.00;31.00;;;;;;;;5099285;27;28482;-84
2022/03/10 10:18:26;;;;;;;;;36.40;34.80;;;;;;;;5096662;27;28447;-84
2022/03/10 10:20:52;;;;;;;;;30.25;29.50;;;;;;;;5101391;27;28778;-85
2022/03/10 10:23:20;;;;;;;;;33.50;32.00;;;;;;;;5087924;27;28485;-84
2022/03/10 10:26:01;;;;;;;;;37.80;35.40;;;;;;;;5105042;27;28517;-86
2022/03/10 10:28:31;;;;;;;;;33.50;29.50;;;;;;;;5087815;27;29386;-84
2022/03/10 10:30:58;;;;;;;;;33.50;30.75;;;;;;;;5087860;27;28483;-87
2022/03/10 10:33:24;;;;;;;;;37.25;32.00;;;;;;;;5087875;27;28431;-87
2022/03/10 10:35:50;;;;;;;;;38.75;33.50;;;;;;;;5091443;27;28961;-87
2022/03/10 10:38:29;;;;;;;;;34.00;30.00;;;;;;;;5108020;27;28421;-86
2022/03/10 10:41:14;;;;;;;;;36.75;32.50;;;;;;;;5107824;27;28381;-86
2022/03/10 10:43:41;;;;;;;;;34.00;32.75;;;;;;;;5094662;27;28566;-87
2022/03/10 10:46:06;;;;;;;;;37.60;32.00;;;;;;;;5108192;27;28258;-87
2022/03/10 10:48:44;;;;;;;;;34.00;34.00;;;;;;;;5108175;27;28666;-85
2022/03/10 10:51:10;;;;;;;;;32.20;32.20;;;;;;;;5108133;27;28424;-85
2022/03/10 10:53:39;;;;;;;;;39.00;33.50;;;;;;;;5108564;27;28457;-85
2022/03/10 10:56:04;;;;;;;;;33.40;28.80;;;;;;;;5108319;27;28570;-85
2022/03/10 10:58:30;;;;;;;;;29.67;25.00;;;;;;;;5111611;27;28396;-86
2022/03/10 11:00:55;;;;;;;;;31.50;29.25;;;;;;;;5111709;27;28309;-85
2022/03/10 11:03:28;;;;;;;;;36.00;32.33;;;;;;;;5111728;27;28410;-85
2022/03/10 11:05:54;;;;;;;;;30.80;30.80;;;;;;;;5111616;27;28620;-85
2022/03/10 11:08:20;;;;;;;;;30.75;28.50;;;;;;;;5110721;27;28460;-85
2022/03/10 11:10:46;;;;;;;;;29.50;29.50;;;;;;;;5111620;27;29007;-85
2022/03/10 11:13:11;;;;;;;;;40.25;33.25;;;;;;;;5111676;27;28502;-85
2022/03/10 11:15:37;;;;;;;;;34.50;29.00;;;;;;;;5111438;27;28448;-85
2022/03/10 11:18:03;;;;;;;;;34.60;33.00;;;;;;;;5111729;27;28491;-85
2022/03/10 11:20:30;;;;;;;;;26.75;26.75;;;;;;;;5111446;27;28425;-84
2022/03/10 11:22:58;;;;;;;;;28.67;26.00;;;;;;;;5111443;27;28576;-85
2022/03/10 11:25:33;;;;;;;;;30.75;28.75;;;;;;;;5111664;27;28464;-85
2022/03/10 11:28:03;;;;;;;;;26.00;23.40;;;;;;;;5111142;27;28386;-85
2022/03/10 11:30:29;;;;;;;;;32.20;32.00;;;;;;;;5111254;27;28337;-85
2022/03/10 11:33:00;;;;;;;;;29.00;29.00;;;;;;;;5111314;27;28523;-85
2022/03/10 11:35:30;;;;;;;;;30.75;29.00;;;;;;;;5111323;27;28483;-85
2022/03/10 11:37:55;;;;;;;;;28.50;28.50;;;;;;;;5111186;27;29286;-85
2022/03/10 11:40:38;;;;;;;;;28.00;24.75;;;;;;;;5111142;27;28444;-85
2022/03/10 11:43:03;;;;;;;;;31.60;29.60;;;;;;;;5110817;27;28932;-85
2022/03/10 11:45:30;;;;;;;;;30.00;26.00;;;;;;;;5122735;27;28566;-85
2022/03/10 11:48:15;;;;;;;;;28.40;24.80;;;;;;;;5111053;27;29555;-85
2022/03/10 11:50:40;;;;;;;;;31.33;26.00;;;;;;;;5100883;27;28442;-86
2022/03/10 11:53:06;;;;;;;;;33.75;32.00;;;;;;;;5111261;27;28544;-85
2022/03/10 11:55:40;;;;;;;;;24.80;23.00;;;;;;;;5116544;27;28764;-85
2022/03/10 11:58:06;;;;;;;;;31.25;28.00;;;;;;;;5120987;27;29282;-84
2022/03/10 12:00:40;;;;;;;;;29.50;29.50;;;;;;;;5112609;27;28313;-85
2022/03/10 12:03:06;;;;;;;;;27.00;25.75;;;;;;;;5121864;27;28557;-85
2022/03/10 12:05:51;;;;;;;;;31.25;29.00;;;;;;;;5129862;27;28520;-86
2022/03/10 12:08:20;;;;;;;;;28.50;25.25;;;;;;;;5126539;27;28482;-85
2022/03/10 12:10:47;;;;;;;;;29.40;29.00;;;;;;;;5115803;27;28412;-85
2022/03/10 12:13:23;;;;;;;;;32.00;30.25;;;;;;;;5110625;27;28467;-85
2022/03/10 12:15:49;;;;;;;;;31.75;30.25;;;;;;;;5110634;27;28399;-86
2022/03/10 12:18:16;;;;;;;;;27.25;25.00;;;;;;;;5110389;27;28378;-85
2022/03/10 12:20:43;;;;;;;;;25.00;25.00;;;;;;;;5110436;27;28443;-86
2022/03/10 12:23:10;;;;;;;;;32.20;28.20;;;;;;;;5110605;27;28470;-85
2022/03/10 12:25:41;;;;;;;;;23.25;23.25;;;;;;;;5100912;27;28463;-85
2022/03/10 12:28:06;;;;;;;;;26.80;26.80;;;;;;;;5089823;28;29221;-85
2022/03/10 12:30:38;;;;;;;;;28.25;28.25;;;;;;;;5089930;28;28338;-85
2022/03/10 12:33:03;;;;;;;;;31.75;31.25;;;;;;;;5100627;27;28440;-85
2022/03/10 12:35:29;;;;;;;;;24.25;23.25;;;;;;;;5095107;27;28380;-85
2022/03/10 12:37:55;;;;;;;;;26.40;26.20;;;;;;;;5089707;28;28487;-85
2022/03/10 12:40:21;;;;;;;;;22.33;22.00;;;;;;;;5096578;27;28545;-85
2022/03/10 12:42:47;;;;;;;;;25.80;24.00;;;;;;;;5110180;27;28537;-86
2022/03/10 12:45:13;;;;;;;;;29.00;27.33;;;;;;;;5110025;27;28393;-85
2022/03/10 12:47:43;;;;;;;;;30.00;22.75;;;;;;;;5089797;27;28516;-86
2022/03/10 12:50:09;;;;;;;;;26.40;25.80;;;;;;;;5095484;27;28441;-86
2022/03/10 12:52:40;;;;;;;;;36.25;31.75;;;;;;;;5110104;27;28217;-85
2022/03/10 12:55:05;;;;;;;;;24.00;24.00;;;;;;;;5110299;27;28468;-85
2022/03/10 12:57:36;;;;;;;;;28.00;26.67;;;;;;;;5109761;27;28479;-86
2022/03/10 13:00:01;;;;;;;;;98.75;95.25;;;;;;;;5109745;27;28429;-85
2022/03/10 13:02:27;;;;;;;;;87.75;71.25;;;;;;;;5109834;27;28451;-85
2022/03/10 13:04:57;;;;;;;;;98.25;91.50;;;;;;;;5109250;27;28446;-85
2022/03/10 13:07:23;;;;;;;;;102.75;97.50;;;;;;;;5109669;27;28545;-85
2022/03/10 13:09:55;;;;;;;;;75.20;62.60;;;;;;;;5099606;27;28866;-93
2022/03/10 13:12:32;;;;;;;;;31.00;28.75;;;;;;;;5089749;27;28571;-85
2022/03/10 13:14:58;;;;;;;;;21.67;21.67;;;;;;;;5089993;27;28794;-86
2022/03/10 13:17:30;;;;;;;;;23.40;21.40;;;;;;;;5089823;27;28729;-86
2022/03/10 13:19:56;;;;;;;;;19.00;19.00;;;;;;;;5095515;27;28535;-87
2022/03/10 13:22:21;;;;;;;;;25.00;23.25;;;;;;;;5109584;27;28383;-85
2022/03/10 13:24:49;;;;;;;;;20.00;20.00;;;;;;;;5125668;27;28527;-87
2022/03/10 13:27:16;;;;;;;;;22.20;21.80;;;;;;;;5109838;27;28358;-87
2022/03/10 13:29:47;;;;;;;;;21.75;18.75;;;;;;;;5109945;27;28334;-87
2022/03/10 13:32:12;;;;;;;;;22.50;21.00;;;;;;;;5109902;27;28442;-88
2022/03/10 13:34:38;;;;;;;;;22.67;19.67;;;;;;;;5109357;27;28397;-88
2022/03/10 13:37:06;;;;;;;;;22.00;20.67;;;;;;;;5109763;27;29541;-87
2022/03/10 13:39:32;;;;;;;;;83.00;69.00;;;;;;;;5109698;27;28308;-90
2022/03/10 13:41:58;;;;;;;;;75.25;62.75;;;;;;;;5118298;27;28827;-91
2022/03/10 13:44:23;;;;;;;;;63.33;53.33;;;;;;;;5109653;27;28338;-90
2022/03/10 13:46:48;;;;;;;;;22.00;19.00;;;;;;;;5108642;27;28521;-90
2022/03/10 13:49:23;;;;;;;;;19.75;15.75;;;;;;;;5105760;27;28458;-91
2022/03/10 13:51:48;;;;;;;;;15.25;15.25;;;;;;;;5109144;27;28338;-90
2022/03/10 13:54:15;;;;;;;;;19.00;19.00;;;;;;;;5121339;27;28510;-90
2022/03/10 13:56:42;;;;;;;;;95.50;92.75;;;;;;;;5127007;27;28428;-91
2022/03/10 13:59:09;;;;;;;;;68.00;55.75;;;;;;;;5126507;27;28788;-91
2022/03/10 14:01:36;;;;;;;;;17.00;16.20;;;;;;;;5129554;27;28451;-90
2022/03/10 14:04:07;;;;;;;;;18.50;16.50;;;;;;;;5121477;27;27825;-90
2022/03/10 14:06:39;;;;;;;;;18.25;18.00;;;;;;;;5108693;27;28372;-90
2022/03/10 14:09:14;;;;;;;;;21.80;18.00;;;;;;;;5110207;27;28474;-90
2022/03/10 14:11:39;;;;;;;;;75.00;60.75;;;;;;;;5108978;27;28460;-90
2022/03/10 14:14:05;;;;;;;;;21.75;17.75;;;;;;;;5108770;27;28390;-90
2022/03/10 14:16:31;;;;;;;;;19.50;16.75;;;;;;;;5108551;27;28752;-90